createdAt,value
2022-12-23T08:11:00.742Z,8444.1
2022-12-23T08:12:00.711Z,8929.9
2022-12-23T08:13:00.703Z,9427.7
2022-12-23T08:14:00.720Z,9925.4
2022-12-23T08:16:00.706Z,10927.8
2022-12-23T08:17:00.773Z,11432.5
2022-12-23T08:18:00.956Z,12063.2
2022-12-23T08:19:00.798Z,12693.9
2022-12-23T08:21:00.700Z,13936.2
2022-12-23T08:22:00.715Z,14547.7
2022-12-23T08:23:00.699Z,15051.0
2022-12-23T08:24:00.704Z,15554.3
2022-12-23T08:25:00.958Z,16057.5
2022-12-23T08:26:00.698Z,16398.7
2022-12-23T08:27:00.723Z,16739.8
2022-12-23T08:28:00.716Z,17101.8
2022-12-23T08:29:00.712Z,17463.8
2022-12-23T08:31:00.785Z,18092.5
2022-12-23T08:32:00.723Z,18359.1
2022-12-23T08:33:00.776Z,18384.4
2022-12-23T08:34:00.768Z,18409.7
2022-12-23T08:36:02.012Z,18733.9
2022-12-23T08:37:00.709Z,19032.9
2022-12-23T08:38:00.699Z,19221.6
2022-12-23T08:39:00.705Z,19410.3
2022-12-23T08:40:01.594Z,19598.9
2022-12-23T08:41:00.720Z,19576.8
2022-12-23T08:42:00.712Z,19554.7
2022-12-23T08:43:00.732Z,19647.3
2022-12-23T08:44:00.712Z,19739.9
2022-12-23T08:45:02.109Z,19832.5
2022-12-23T08:46:00.732Z,19812.2
2022-12-23T08:47:01.731Z,19791.9
2022-12-23T08:48:00.706Z,19833.2
2022-12-23T08:49:00.722Z,19874.5
2022-12-23T08:51:00.819Z,19795.3
2022-12-23T08:52:00.789Z,19674.8
2022-12-23T08:53:00.704Z,19577.7
2022-12-23T08:54:01.525Z,19480.5
2022-12-23T08:55:01.608Z,19383.4
2022-12-23T08:56:00.709Z,19791.9
2022-12-23T08:57:00.720Z,20200.3
2022-12-23T08:58:00.722Z,20485.7
2022-12-23T08:59:05.734Z,20771.1
2022-12-23T09:01:00.717Z,21418.7
2022-12-23T09:02:01.849Z,21780.9
2022-12-23T09:03:00.843Z,22118.5
2022-12-23T09:04:00.780Z,22456.0
2022-12-23T09:06:00.725Z,23098.9
2022-12-23T09:07:00.745Z,23404.2
2022-12-23T09:08:00.720Z,25033.7
2022-12-23T09:09:00.721Z,26663.1
2022-12-23T09:10:02.072Z,28292.6
2022-12-23T09:11:00.729Z,31006.9
2022-12-23T09:12:00.708Z,33721.1
2022-12-23T09:13:00.713Z,36274.0
2022-12-23T09:14:00.720Z,38826.9
2022-12-23T09:15:01.705Z,41379.7
2022-12-23T09:16:00.730Z,44137.9
2022-12-23T09:17:00.712Z,46896.0
2022-12-23T09:18:00.708Z,49527.8
2022-12-23T09:19:00.738Z,52159.6
2022-12-23T09:20:00.975Z,54791.4
2022-12-23T09:21:01.740Z,56302.7
2022-12-23T09:22:00.709Z,57814.1
2022-12-23T09:23:01.019Z,59150.5
2022-12-23T09:24:00.713Z,60487.0
2022-12-23T09:26:00.719Z,61864.5
2022-12-23T09:27:00.745Z,61905.6
2022-12-23T09:28:00.713Z,62035.9
2022-12-23T09:29:01.029Z,62166.3
2022-12-23T09:33:00.917Z,62459.7
2022-12-23T09:34:00.714Z,62622.9
2022-12-23T09:35:00.932Z,62786.0
2022-12-23T09:36:01.753Z,63963.2
2022-12-23T09:37:00.745Z,65140.4
2022-12-23T09:38:00.753Z,65137.9
2022-12-23T09:39:00.718Z,65135.5
2022-12-23T09:40:01.794Z,65133.0
2022-12-23T09:41:00.731Z,63952.3
2022-12-23T09:42:01.050Z,62771.5
2022-12-23T09:45:02.159Z,62771.5
2022-12-23T09:53:01.928Z,62905.5
2022-12-23T09:54:00.791Z,63039.5
2022-12-23T09:55:01.071Z,63173.5
2022-12-23T09:56:00.787Z,64354.3
2022-12-23T09:57:00.786Z,65535.0
2022-12-23T10:30:51.207Z,65535.0
2022-12-23T10:45:11.805Z,65535.0
2022-12-23T11:30:02.043Z,65535.0
2022-12-23T11:46:00.824Z,64450.1
2022-12-23T11:47:00.755Z,63365.1
2022-12-23T11:51:01.136Z,62408.3
2022-12-23T11:52:00.765Z,61451.5
2022-12-23T11:53:00.777Z,59791.4
2022-12-23T11:54:00.763Z,58131.3
2022-12-23T11:55:00.800Z,56471.1
2022-12-23T11:56:00.976Z,56016.8
2022-12-23T11:57:00.981Z,55562.5
2022-12-23T11:58:00.771Z,54258.5
2022-12-23T11:59:00.776Z,52954.6
2022-12-23T12:00:02.709Z,51650.7
2022-12-23T12:01:11.242Z,50709.2
2022-12-23T12:02:00.851Z,49767.7
2022-12-23T12:03:00.833Z,49471.1
2022-12-23T12:04:00.829Z,49174.4
2022-12-23T12:05:00.830Z,48877.7
2022-12-23T12:06:15.080Z,48576.6
2022-12-23T12:07:00.797Z,48275.5
2022-12-23T12:08:00.831Z,48071.0
2022-12-23T12:09:00.777Z,47866.5
2022-12-23T12:11:01.001Z,46001.7
2022-12-23T12:12:00.768Z,44341.4
2022-12-23T12:13:00.763Z,45645.3
2022-12-23T12:14:00.769Z,46949.3
2022-12-23T12:16:05.981Z,48663.9
2022-12-23T12:17:06.785Z,49074.5
2022-12-23T12:18:00.795Z,49371.2
2022-12-23T12:19:00.766Z,49667.9
2022-12-23T12:21:00.966Z,51222.5
2022-12-23T12:22:00.779Z,52480.4
2022-12-23T12:23:00.763Z,54345.0
2022-12-23T12:24:17.530Z,56209.6
2022-12-23T12:25:00.783Z,58074.2
2022-12-23T12:26:01.244Z,59325.4
2022-12-23T12:27:00.772Z,60576.6
2022-12-23T12:31:01.010Z,62192.3
2022-12-23T12:32:00.772Z,63808.1
2022-12-23T12:41:00.862Z,64671.5
2022-12-23T12:42:05.455Z,65535.0
2022-12-23T12:45:02.008Z,65535.0
2022-12-23T12:46:00.810Z,65159.3
2022-12-23T12:47:04.007Z,64783.5
2022-12-23T13:00:07.728Z,64783.5
2022-12-23T13:01:00.904Z,65159.3
2022-12-23T13:02:00.884Z,65535.0
2022-12-23T13:15:02.441Z,65535.0
2022-12-23T13:30:03.018Z,65535.0
2022-12-23T13:33:00.923Z,63967.7
2022-12-23T13:34:00.908Z,62400.5
2022-12-23T13:36:05.210Z,58366.8
2022-12-23T13:37:00.979Z,55900.4
2022-12-23T13:38:00.800Z,53018.2
2022-12-23T13:39:00.831Z,50136.0
2022-12-23T13:40:05.127Z,47253.8
2022-12-23T13:41:01.310Z,44391.3
2022-12-23T13:42:04.994Z,41528.7
2022-12-23T13:43:00.894Z,38666.2
2022-12-23T13:44:02.274Z,35794.8
2022-12-23T13:45:04.953Z,32923.4
2022-12-23T13:46:00.895Z,29988.1
2022-12-23T13:47:00.845Z,27052.9
2022-12-23T13:48:04.681Z,25684.9
2022-12-23T13:49:00.915Z,24321.1
2022-12-23T13:50:01.967Z,22957.4
2022-12-23T13:51:00.854Z,22460.1
2022-12-23T13:52:00.802Z,21962.7
2022-12-23T13:53:00.868Z,21881.2
2022-12-23T13:54:04.725Z,21676.8
2022-12-23T13:55:01.021Z,21472.4
2022-12-23T13:56:00.795Z,21230.1
2022-12-23T13:57:01.057Z,20987.7
2022-12-23T13:58:00.794Z,20745.4
2022-12-23T13:59:00.799Z,20498.3
2022-12-23T14:00:07.137Z,20251.3
2022-12-23T14:01:00.799Z,19989.4
2022-12-23T14:02:00.865Z,19727.5
2022-12-23T14:03:01.018Z,19465.7
2022-12-23T14:04:00.789Z,19105.1
2022-12-23T14:05:01.712Z,18744.6
2022-12-23T14:06:00.848Z,18336.4
2022-12-23T14:07:00.796Z,17928.2
2022-12-23T14:08:01.821Z,17520.0
2022-12-23T14:09:00.854Z,17180.7
2022-12-23T14:10:01.693Z,16841.5
2022-12-23T14:11:00.792Z,16461.2
2022-12-23T14:12:04.501Z,16080.9
2022-12-23T14:13:00.808Z,15700.7
2022-12-23T14:14:00.788Z,15292.2
2022-12-23T14:15:01.658Z,14883.7
2022-12-23T14:16:00.878Z,14521.6
2022-12-23T14:17:00.816Z,14159.5
2022-12-23T14:18:04.225Z,13797.3
2022-12-23T14:19:00.794Z,13489.8
2022-12-23T14:20:16.740Z,13182.3
2022-12-23T14:21:00.786Z,12921.9
2022-12-23T14:22:00.793Z,12661.5
2022-12-23T14:23:00.794Z,12401.1
2022-12-23T14:24:04.124Z,12128.3
2022-12-23T14:25:03.118Z,11855.5
2022-12-23T14:26:00.860Z,11602.4
2022-12-23T14:27:00.793Z,11349.3
2022-12-23T14:28:00.792Z,11096.3
2022-12-23T14:29:00.799Z,10852.3
2022-12-23T14:30:09.400Z,10608.4
2022-12-23T14:31:01.222Z,10361.1
2022-12-23T14:32:00.793Z,10113.9
2022-12-23T14:33:00.946Z,9866.6
2022-12-23T14:34:00.801Z,9620.1
2022-12-23T14:35:01.651Z,9373.7
2022-12-23T14:36:00.837Z,9115.0
2022-12-23T14:37:00.793Z,8856.3
2022-12-23T14:38:00.793Z,8597.7
2022-12-23T14:39:05.845Z,8363.4
2022-12-23T14:40:01.944Z,8129.1
2022-12-23T14:41:00.822Z,7894.3
2022-12-23T14:42:05.889Z,7659.4
2022-12-23T14:43:00.845Z,7424.5
2022-12-23T14:44:00.799Z,7182.2
2022-12-23T14:45:01.634Z,6939.9
2022-12-23T14:46:00.852Z,6696.5
2022-12-23T14:47:01.132Z,6453.1
2022-12-23T14:48:00.820Z,6209.7
2022-12-23T14:49:29.608Z,5967.3
2022-12-23T14:50:06.938Z,5725.0
2022-12-23T14:51:00.822Z,5490.8
2022-12-23T14:52:00.799Z,5256.6
2022-12-23T14:53:00.875Z,5022.4
2022-12-23T14:54:00.800Z,4798.7
2022-12-23T14:55:31.423Z,4574.9
2022-12-23T14:56:10.795Z,4364.5
2022-12-23T14:57:00.812Z,4154.0
2022-12-23T14:58:05.839Z,3943.5
2022-12-23T14:59:00.801Z,3749.5
2022-12-23T15:00:04.311Z,3555.4
2022-12-23T15:01:00.803Z,3375.7
2022-12-23T15:02:00.956Z,3196.1
2022-12-23T15:03:00.875Z,3016.4
2022-12-23T15:04:01.694Z,2853.6
2022-12-23T15:05:16.755Z,2690.8
2022-12-23T15:06:00.888Z,2546.0
2022-12-23T15:07:00.804Z,2401.2
2022-12-23T15:08:00.816Z,2256.4
2022-12-23T15:09:00.823Z,2125.7
2022-12-23T15:10:02.458Z,1994.9
2022-12-23T15:11:00.837Z,1875.7
2022-12-23T15:12:00.806Z,1756.4
2022-12-23T15:13:01.069Z,1637.1
2022-12-23T15:14:00.840Z,1527.7
2022-12-23T15:16:01.884Z,1319.0
2022-12-23T15:17:00.813Z,1219.8
2022-12-23T15:18:00.807Z,1120.6
2022-12-23T15:19:00.810Z,1032.7
2022-12-23T15:20:02.026Z,944.9
2022-12-23T15:21:00.873Z,868.6
2022-12-23T15:22:10.591Z,792.3
2022-12-23T15:23:00.812Z,716.1
2022-12-23T15:24:00.824Z,651.1
2022-12-23T15:25:01.726Z,586.1
2022-12-23T15:26:00.872Z,531.8
2022-12-23T15:27:25.743Z,477.5
2022-12-23T15:28:02.015Z,423.3
2022-12-23T15:29:00.804Z,379.3
2022-12-23T15:31:01.919Z,301.0
2022-12-23T15:32:00.813Z,266.6
2022-12-23T15:33:00.817Z,232.2
2022-12-23T15:34:03.251Z,205.7
2022-12-23T15:35:02.128Z,179.1
2022-12-23T15:36:00.845Z,159.0
2022-12-23T15:37:00.940Z,138.9
2022-12-23T15:38:00.815Z,118.7
2022-12-23T15:39:00.859Z,103.9
2022-12-23T15:41:00.854Z,78.3
2022-12-23T15:42:00.818Z,67.5
2022-12-23T15:43:00.826Z,56.8
2022-12-23T15:44:00.830Z,49.3
2022-12-23T15:45:02.431Z,41.7
2022-12-23T15:46:00.985Z,36.5
2022-12-23T15:47:00.956Z,31.2
2022-12-23T15:48:00.902Z,25.9
2022-12-23T15:49:00.899Z,22.4
2022-12-23T15:50:03.831Z,18.9
2022-12-23T15:51:00.882Z,16.5
2022-12-23T15:52:12.190Z,14.2
2022-12-23T15:53:00.837Z,11.9
2022-12-23T15:54:01.099Z,10.3
2022-12-23T15:55:03.186Z,8.8
2022-12-23T15:56:00.942Z,7.7
2022-12-23T15:57:01.144Z,6.7
2022-12-23T15:58:01.119Z,5.6
2022-12-23T15:59:00.820Z,4.9
2022-12-23T16:00:05.462Z,4.1
2022-12-23T16:01:00.825Z,3.7
2022-12-23T16:02:00.940Z,3.2
2022-12-23T16:03:02.658Z,2.7
2022-12-23T16:04:00.963Z,2.4
2022-12-23T16:06:00.823Z,1.8
2022-12-23T16:07:00.823Z,1.5
2022-12-23T16:08:00.822Z,1.3
2022-12-23T16:09:00.846Z,1.1
2022-12-23T16:10:31.562Z,0.9
2022-12-23T16:11:01.286Z,0.7
2022-12-23T16:12:00.863Z,0.6
2022-12-23T16:13:00.836Z,0.5
2022-12-23T16:14:00.864Z,0.4
2022-12-23T16:15:01.460Z,0.3
